Time;durP1;ratioP1;P1;durP2;ratioP2;P2;SDS_P1;SDS_P2;PMS_P1;PMS_P2;Temp;Humidity;BMP_temperature;BMP_pressure;BME280_temperature;BME280_humidity;BME280_pressure;Samples;Min_cycle;Max_cycle;Signal;HPM_P1;HPM_P2
2022/11/08 00:01:51;;;;;;;40.22;17.67;;;;;;;;;;5054867;28;20475;-43
2022/11/08 00:04:17;;;;;;;41.13;17.67;;;;;;;;;;5055018;28;20095;-42
2022/11/08 00:14:56;;;;;;;36.53;16.92;;;;;;;;;;5054926;28;20167;-42
2022/11/08 00:17:23;;;;;;;37.72;16.60;;;;;;;;;;5054708;28;20531;-39
2022/11/08 00:19:49;;;;;;;36.80;17.23;;;;;;;;;;5054735;28;20376;-38
2022/11/08 00:22:14;;;;;;;38.10;17.10;;;;;;;;;;5054713;28;20028;-41
2022/11/08 00:24:41;;;;;;;36.53;17.65;;;;;;;;;;5054537;28;20017;-37
2022/11/08 00:27:08;;;;;;;40.13;17.23;;;;;;;;;;5054222;28;20013;-39
2022/11/08 00:29:35;;;;;;;34.28;16.95;;;;;;;;;;5054629;28;20043;-38
2022/11/08 00:32:01;;;;;;;38.92;16.33;;;;;;;;;;5054471;28;20044;-42
2022/11/08 00:34:26;;;;;;;45.38;17.80;;;;;;;;;;5054424;28;20465;-41
2022/11/08 00:36:52;;;;;;;65.45;17.88;;;;;;;;;;5054218;28;20097;-38
2022/11/08 00:39:18;;;;;;;41.97;17.75;;;;;;;;;;5054041;28;20013;-40
2022/11/08 00:41:44;;;;;;;40.58;17.27;;;;;;;;;;5054018;28;20041;-42
2022/11/08 00:44:09;;;;;;;46.05;17.77;;;;;;;;;;5054063;28;20055;-38
2022/11/08 00:46:36;;;;;;;40.97;16.00;;;;;;;;;;5052612;28;20060;-42
2022/11/08 00:49:01;;;;;;;44.80;17.15;;;;;;;;;;5053828;28;20040;-34
2022/11/08 00:51:26;;;;;;;45.63;16.48;;;;;;;;;;5053541;28;20022;-39
2022/11/08 00:53:52;;;;;;;38.42;15.88;;;;;;;;;;5053851;28;20380;-40
2022/11/08 00:56:17;;;;;;;32.85;16.42;;;;;;;;;;5053912;28;20029;-40
2022/11/08 00:58:42;;;;;;;30.02;15.77;;;;;;;;;;5053822;28;20111;-41
2022/11/08 01:01:09;;;;;;;26.60;15.10;;;;;;;;;;5053833;28;20017;-40
2022/11/08 01:03:34;;;;;;;27.88;16.35;;;;;;;;;;5053731;28;20435;-42
2022/11/08 01:06:02;;;;;;;27.02;15.88;;;;;;;;;;5053737;28;20126;-40
2022/11/08 01:08:27;;;;;;;29.65;16.00;;;;;;;;;;5053502;28;20100;-40
2022/11/08 01:10:53;;;;;;;26.58;14.90;;;;;;;;;;5053565;28;20482;-41
2022/11/08 01:13:18;;;;;;;28.67;14.75;;;;;;;;;;5053664;28;20419;-42
2022/11/08 01:15:44;;;;;;;24.65;13.98;;;;;;;;;;5053465;28;20052;-42
2022/11/08 01:18:10;;;;;;;31.10;15.05;;;;;;;;;;5053461;28;20017;-41
2022/11/08 01:20:39;;;;;;;31.05;14.88;;;;;;;;;;5053532;28;20048;-42
2022/11/08 01:23:04;;;;;;;25.95;14.35;;;;;;;;;;5053246;28;20048;-42
2022/11/08 01:25:30;;;;;;;25.77;14.50;;;;;;;;;;5052081;28;20075;-41
2022/11/08 01:27:55;;;;;;;35.33;15.23;;;;;;;;;;5053359;28;20025;-41
2022/11/08 01:30:20;;;;;;;28.48;14.48;;;;;;;;;;5053664;28;20025;-42
2022/11/08 01:32:45;;;;;;;32.03;14.55;;;;;;;;;;5053130;28;20074;-40
2022/11/08 01:35:11;;;;;;;25.92;14.57;;;;;;;;;;5053136;28;20100;-42
2022/11/08 01:37:36;;;;;;;29.20;13.40;;;;;;;;;;5052908;28;20037;-38
2022/11/08 01:40:01;;;;;;;25.05;14.18;;;;;;;;;;5053208;28;20099;-38
2022/11/08 01:42:27;;;;;;;36.53;14.18;;;;;;;;;;5053031;28;20032;-42
2022/11/08 01:44:56;;;;;;;32.67;14.75;;;;;;;;;;5053061;28;20453;-40
2022/11/08 01:47:22;;;;;;;33.55;14.02;;;;;;;;;;5052890;28;20119;-38
2022/11/08 01:49:47;;;;;;;24.17;15.18;;;;;;;;;;5053205;28;20017;-40
2022/11/08 01:52:19;;;;;;;26.17;13.93;;;;;;;;;;5052943;28;20025;-41
2022/11/08 01:54:51;;;;;;;23.73;14.07;;;;;;;;;;5053092;28;20043;-41
2022/11/08 01:57:18;;;;;;;23.40;13.80;;;;;;;;;;5052877;28;20044;-41
2022/11/08 01:59:45;;;;;;;30.02;13.65;;;;;;;;;;5052878;28;20075;-40
2022/11/08 02:02:11;;;;;;;26.92;13.60;;;;;;;;;;5052454;28;20028;-39
2022/11/08 02:04:40;;;;;;;25.25;13.05;;;;;;;;;;5052160;28;20021;-43
2022/11/08 02:07:06;;;;;;;25.70;13.95;;;;;;;;;;5052636;28;20456;-42
2022/11/08 02:09:33;;;;;;;35.28;13.07;;;;;;;;;;5052515;28;20039;-39
2022/11/08 02:11:58;;;;;;;24.58;13.27;;;;;;;;;;5052817;28;20021;-38
2022/11/08 02:14:23;;;;;;;30.67;13.50;;;;;;;;;;5052625;28;20017;-37
2022/11/08 02:16:49;;;;;;;28.58;13.43;;;;;;;;;;5052502;28;20036;-41
2022/11/08 02:19:18;;;;;;;30.60;13.77;;;;;;;;;;5052556;28;20017;-40
2022/11/08 02:22:00;;;;;;;23.98;13.30;;;;;;;;;;5052636;28;20017;-39
2022/11/08 02:24:25;;;;;;;21.92;12.80;;;;;;;;;;5052613;28;20025;-42
2022/11/08 02:26:51;;;;;;;22.98;12.68;;;;;;;;;;5052532;28;20028;-42
2022/11/08 02:29:26;;;;;;;20.85;13.45;;;;;;;;;;5052481;28;20021;-41
2022/11/08 02:31:51;;;;;;;22.63;12.43;;;;;;;;;;5052308;28;20021;-41
2022/11/08 02:34:17;;;;;;;26.40;13.82;;;;;;;;;;5052520;28;20379;-41
2022/11/08 02:36:45;;;;;;;20.63;12.35;;;;;;;;;;5052743;28;20182;-43
2022/11/08 02:39:10;;;;;;;23.05;12.38;;;;;;;;;;5052474;28;20033;-42
2022/11/08 02:41:35;;;;;;;19.00;11.20;;;;;;;;;;5052260;28;20480;-41
2022/11/08 02:44:00;;;;;;;21.33;12.63;;;;;;;;;;5052367;28;20071;-42
2022/11/08 02:46:26;;;;;;;19.58;12.13;;;;;;;;;;5052387;28;20045;-39
2022/11/08 02:48:51;;;;;;;21.08;12.55;;;;;;;;;;5052463;28;20025;-41
2022/11/08 02:51:16;;;;;;;22.63;13.20;;;;;;;;;;5052450;28;20100;-41
2022/11/08 02:53:41;;;;;;;25.00;13.63;;;;;;;;;;5052493;28;20063;-41
2022/11/08 02:56:06;;;;;;;36.13;13.55;;;;;;;;;;5052284;28;20469;-38
2022/11/08 02:58:32;;;;;;;26.55;13.30;;;;;;;;;;5052189;28;20057;-42
2022/11/08 03:00:57;;;;;;;35.03;13.52;;;;;;;;;;5052051;28;20381;-42
2022/11/08 03:03:22;;;;;;;26.77;12.60;;;;;;;;;;5052351;28;20021;-42
2022/11/08 03:05:47;;;;;;;24.95;13.77;;;;;;;;;;5052244;28;20009;-41
2022/11/08 03:08:13;;;;;;;25.75;11.85;;;;;;;;;;5052201;28;20026;-42
2022/11/08 03:10:38;;;;;;;25.77;12.55;;;;;;;;;;5052020;28;20111;-41
2022/11/08 03:13:05;;;;;;;27.40;14.00;;;;;;;;;;5052134;28;20454;-41
2022/11/08 03:15:30;;;;;;;20.63;12.02;;;;;;;;;;5054738;28;20055;-41
2022/11/08 03:17:56;;;;;;;41.33;13.93;;;;;;;;;;5055606;28;20457;-41
2022/11/08 03:20:21;;;;;;;28.60;13.43;;;;;;;;;;5055868;28;20021;-41
2022/11/08 03:22:46;;;;;;;27.65;12.98;;;;;;;;;;5055915;28;20028;-40
2022/11/08 03:25:12;;;;;;;31.00;12.85;;;;;;;;;;5055844;28;20100;-42
2022/11/08 03:27:37;;;;;;;31.27;12.95;;;;;;;;;;5055547;28;20032;-42
2022/11/08 03:30:03;;;;;;;33.80;13.18;;;;;;;;;;5055353;28;20029;-42
2022/11/08 03:32:28;;;;;;;32.42;12.45;;;;;;;;;;5055309;28;20017;-40
2022/11/08 03:34:53;;;;;;;32.10;13.90;;;;;;;;;;5055407;28;20474;-40
2022/11/08 03:37:19;;;;;;;22.40;12.00;;;;;;;;;;5055378;28;20483;-42
2022/11/08 03:39:44;;;;;;;31.02;13.40;;;;;;;;;;5055227;28;20040;-38
2022/11/08 03:42:09;;;;;;;24.05;11.68;;;;;;;;;;5055163;28;20033;-42
2022/11/08 03:44:34;;;;;;;29.15;13.40;;;;;;;;;;5055549;28;20025;-38
2022/11/08 03:47:00;;;;;;;30.55;13.18;;;;;;;;;;5053898;28;20468;-42
2022/11/08 03:49:25;;;;;;;24.67;12.50;;;;;;;;;;5055346;28;20036;-38
2022/11/08 03:51:51;;;;;;;30.92;13.13;;;;;;;;;;5055150;28;20021;-42
2022/11/08 03:54:16;;;;;;;29.33;12.70;;;;;;;;;;5055116;28;20013;-44
2022/11/08 03:56:41;;;;;;;28.33;13.00;;;;;;;;;;5055023;28;20534;-41
2022/11/08 03:59:07;;;;;;;30.77;13.07;;;;;;;;;;5055036;28;20378;-38
2022/11/08 04:01:32;;;;;;;27.83;13.23;;;;;;;;;;5054811;28;20045;-41
2022/11/08 04:03:58;;;;;;;23.20;12.45;;;;;;;;;;5055069;28;20021;-40
2022/11/08 04:06:23;;;;;;;23.80;12.93;;;;;;;;;;5054983;28;20036;-41
2022/11/08 04:08:49;;;;;;;24.65;13.07;;;;;;;;;;5055174;28;20036;-39
2022/11/08 04:16:42;;;;;;;31.48;13.38;;;;;;;;;;5054449;28;20071;-40
2022/11/08 04:21:52;;;;;;;29.85;15.93;;;;;;;;;;5054970;28;20104;-42
2022/11/08 04:24:17;;;;;;;25.95;13.95;;;;;;;;;;5054527;28;20046;-41
2022/11/08 04:26:42;;;;;;;28.65;13.68;;;;;;;;;;5053670;28;20025;-40
2022/11/08 04:29:08;;;;;;;35.90;14.35;;;;;;;;;;5054512;28;20021;-42
2022/11/08 04:31:33;;;;;;;29.50;15.50;;;;;;;;;;5054576;28;20017;-39
2022/11/08 04:33:58;;;;;;;28.52;14.18;;;;;;;;;;5054477;28;20021;-41
2022/11/08 04:36:23;;;;;;;31.35;15.23;;;;;;;;;;5054226;28;20036;-42
2022/11/08 04:38:49;;;;;;;31.88;14.98;;;;;;;;;;5054198;28;20021;-40
2022/11/08 04:41:15;;;;;;;29.45;14.65;;;;;;;;;;5052865;28;20098;-42
2022/11/08 04:43:41;;;;;;;37.10;15.20;;;;;;;;;;5054160;28;20115;-41
2022/11/08 04:46:10;;;;;;;29.35;14.88;;;;;;;;;;5054091;28;20115;-40
2022/11/08 04:48:35;;;;;;;;;;;;;;;;;;5054386;28;20384;-40
2022/11/08 04:51:21;;;;;;;23.92;13.13;;;;;;;;;;5054011;28;20267;-42
2022/11/08 04:53:47;;;;;;;28.40;12.90;;;;;;;;;;5053862;28;20032;-40
2022/11/08 04:56:13;;;;;;;25.38;13.48;;;;;;;;;;5053979;28;20028;-41
2022/11/08 04:58:39;;;;;;;23.15;12.30;;;;;;;;;;5052797;28;20103;-40
2022/11/08 05:01:06;;;;;;;28.17;14.20;;;;;;;;;;5053754;28;20039;-42
2022/11/08 05:03:31;;;;;;;24.80;13.15;;;;;;;;;;5053862;28;20017;-42
2022/11/08 05:06:00;;;;;;;26.98;13.50;;;;;;;;;;5053442;28;20021;-37
2022/11/08 05:08:26;;;;;;;26.50;12.65;;;;;;;;;;5053409;28;20032;-39
2022/11/08 05:10:51;;;;;;;23.23;12.88;;;;;;;;;;5053607;28;20025;-42
2022/11/08 05:13:16;;;;;;;28.00;12.95;;;;;;;;;;5053926;28;20044;-40
2022/11/08 05:15:41;;;;;;;25.65;13.00;;;;;;;;;;5053488;28;20017;-40
2022/11/08 05:18:06;;;;;;;30.20;12.85;;;;;;;;;;5053521;28;20068;-41
2022/11/08 05:23:25;;;;;;;30.75;13.98;;;;;;;;;;5053523;28;20051;-41
2022/11/08 05:25:51;;;;;;;21.83;11.65;;;;;;;;;;5053562;28;20029;-42
2022/11/08 05:28:16;;;;;;;21.55;11.35;;;;;;;;;;5053463;28;20031;-42
2022/11/08 05:30:42;;;;;;;20.75;12.18;;;;;;;;;;5053120;28;20021;-42
2022/11/08 05:33:07;;;;;;;25.55;11.43;;;;;;;;;;5052916;28;20032;-41
2022/11/08 05:35:33;;;;;;;21.40;11.57;;;;;;;;;;5053325;28;20071;-38
2022/11/08 05:37:58;;;;;;;21.50;11.63;;;;;;;;;;5053026;28;20548;-40
2022/11/08 05:40:23;;;;;;;22.02;11.38;;;;;;;;;;5053196;28;20028;-42
2022/11/08 05:42:49;;;;;;;22.30;11.07;;;;;;;;;;5053124;28;20024;-40
2022/11/08 05:45:14;;;;;;;21.55;11.70;;;;;;;;;;5052909;28;20056;-42
2022/11/08 05:47:42;;;;;;;32.72;12.10;;;;;;;;;;5052848;28;20444;-40
2022/11/08 05:50:07;;;;;;;21.45;11.93;;;;;;;;;;5053034;28;20349;-38
2022/11/08 05:52:33;;;;;;;29.42;12.25;;;;;;;;;;5053032;28;20032;-43
2022/11/08 05:54:58;;;;;;;26.23;13.13;;;;;;;;;;5053093;28;20105;-37
2022/11/08 05:57:23;;;;;;;30.30;12.93;;;;;;;;;;5051436;28;20061;-41
2022/11/08 05:59:49;;;;;;;26.50;13.30;;;;;;;;;;5052673;28;20460;-39
2022/11/08 06:02:15;;;;;;;31.85;13.27;;;;;;;;;;5052404;28;20048;-40
2022/11/08 06:04:40;;;;;;;25.05;13.05;;;;;;;;;;5052781;28;20025;-40
2022/11/08 06:07:06;;;;;;;31.58;15.00;;;;;;;;;;5052540;28;20027;-39
2022/11/08 06:09:31;;;;;;;28.02;14.07;;;;;;;;;;5052535;28;20023;-43
2022/11/08 06:11:56;;;;;;;28.67;14.07;;;;;;;;;;5052627;28;20103;-42
2022/11/08 06:14:21;;;;;;;29.05;13.90;;;;;;;;;;5052390;28;20057;-40
2022/11/08 06:16:47;;;;;;;28.48;12.60;;;;;;;;;;5052059;28;20035;-37
2022/11/08 06:19:12;;;;;;;28.73;14.25;;;;;;;;;;5052709;28;20068;-42
2022/11/08 06:21:37;;;;;;;31.05;13.90;;;;;;;;;;5052562;28;20017;-40
2022/11/08 06:24:02;;;;;;;30.00;14.50;;;;;;;;;;5052364;28;20528;-40
2022/11/08 06:26:28;;;;;;;40.88;15.77;;;;;;;;;;5052613;28;20021;-41
2022/11/08 06:28:53;;;;;;;35.40;15.95;;;;;;;;;;5052246;28;20120;-37
2022/11/08 06:31:18;;;;;;;40.72;16.20;;;;;;;;;;5052183;28;20475;-38
2022/11/08 06:33:44;;;;;;;34.10;15.50;;;;;;;;;;5052153;28;20078;-38
2022/11/08 06:36:09;;;;;;;33.70;15.05;;;;;;;;;;5052562;28;20024;-40
2022/11/08 06:38:34;;;;;;;32.78;16.02;;;;;;;;;;5052736;28;20467;-38
2022/11/08 06:41:00;;;;;;;32.00;15.48;;;;;;;;;;5068973;28;20162;-42
2022/11/08 06:43:25;;;;;;;36.85;16.17;;;;;;;;;;5077823;28;20082;-41
2022/11/08 06:45:51;;;;;;;31.55;15.80;;;;;;;;;;5082642;28;20532;-42
2022/11/08 06:48:16;;;;;;;33.33;16.13;;;;;;;;;;5081867;28;20099;-40
2022/11/08 06:50:41;;;;;;;28.10;15.30;;;;;;;;;;5090408;28;20026;-41
2022/11/08 06:53:07;;;;;;;34.47;16.15;;;;;;;;;;5075748;28;20021;-40
2022/11/08 06:55:33;;;;;;;32.33;14.80;;;;;;;;;;5064951;28;20138;-42
2022/11/08 06:57:59;;;;;;;30.27;14.20;;;;;;;;;;5075952;28;20508;-41
2022/11/08 07:00:24;;;;;;;25.20;13.75;;;;;;;;;;5062773;28;20028;-40
2022/11/08 07:02:53;;;;;;;25.83;14.45;;;;;;;;;;5061003;28;20452;-39
2022/11/08 07:05:19;;;;;;;23.63;13.68;;;;;;;;;;5055902;28;20021;-42
2022/11/08 07:07:50;;;;;;;21.88;13.52;;;;;;;;;;5059379;28;20168;-40
2022/11/08 07:10:16;;;;;;;27.83;13.68;;;;;;;;;;5066922;28;20388;-41
2022/11/08 07:12:41;;;;;;;28.40;13.68;;;;;;;;;;5073345;28;20103;-42
2022/11/08 07:15:06;;;;;;;22.40;14.60;;;;;;;;;;5055366;28;20484;-41
2022/11/08 07:17:31;;;;;;;27.08;15.45;;;;;;;;;;5067980;28;20643;-44
2022/11/08 07:19:57;;;;;;;24.80;15.00;;;;;;;;;;5061777;28;20075;-44
2022/11/08 07:22:22;;;;;;;28.30;14.27;;;;;;;;;;5054669;28;20040;-41
2022/11/08 07:24:47;;;;;;;29.77;14.87;;;;;;;;;;5057695;28;20269;-42
2022/11/08 07:27:13;;;;;;;32.63;14.97;;;;;;;;;;5073346;28;20732;-39
2022/11/08 07:29:38;;;;;;;35.22;16.38;;;;;;;;;;5073901;28;20691;-40
2022/11/08 07:32:03;;;;;;;26.35;14.43;;;;;;;;;;5059013;28;20083;-41
2022/11/08 07:34:30;;;;;;;31.15;16.42;;;;;;;;;;5054630;28;20032;-42
2022/11/08 07:36:55;;;;;;;36.47;15.57;;;;;;;;;;5057475;28;20037;-42
2022/11/08 07:39:20;;;;;;;24.30;14.30;;;;;;;;;;5054322;28;20100;-41
2022/11/08 07:41:47;;;;;;;25.53;13.97;;;;;;;;;;5053075;28;20319;-42
2022/11/08 07:44:12;;;;;;;28.25;15.32;;;;;;;;;;5058785;28;20772;-40
2022/11/08 07:46:37;;;;;;;30.35;16.20;;;;;;;;;;5061816;28;20049;-44
2022/11/08 07:49:03;;;;;;;27.52;15.90;;;;;;;;;;5060528;28;20033;-41
2022/11/08 07:51:28;;;;;;;31.15;16.23;;;;;;;;;;5064332;28;20016;-39
2022/11/08 07:53:54;;;;;;;27.02;16.05;;;;;;;;;;5060074;28;20120;-45
2022/11/08 07:56:19;;;;;;;28.77;16.58;;;;;;;;;;5055696;28;20115;-43
2022/11/08 07:58:44;;;;;;;29.13;16.05;;;;;;;;;;5057899;28;20020;-43
2022/11/08 08:01:10;;;;;;;27.27;15.80;;;;;;;;;;5055967;28;20048;-40
2022/11/08 08:03:36;;;;;;;26.65;15.18;;;;;;;;;;5054650;28;20039;-42
2022/11/08 08:06:01;;;;;;;32.97;16.05;;;;;;;;;;5067933;28;20025;-45
2022/11/08 08:08:27;;;;;;;25.05;14.18;;;;;;;;;;5067910;28;20039;-42
2022/11/08 08:10:55;;;;;;;23.55;13.68;;;;;;;;;;5067874;28;20384;-41
2022/11/08 08:13:21;;;;;;;24.73;14.50;;;;;;;;;;5057755;28;20017;-42
2022/11/08 08:15:46;;;;;;;21.85;14.05;;;;;;;;;;5068761;28;20131;-40
2022/11/08 08:18:11;;;;;;;23.25;13.57;;;;;;;;;;5062145;28;20033;-43
2022/11/08 08:20:37;;;;;;;27.02;14.60;;;;;;;;;;5073750;28;20024;-41
2022/11/08 08:23:03;;;;;;;18.50;11.93;;;;;;;;;;5070667;28;20567;-40
2022/11/08 08:25:30;;;;;;;25.95;15.13;;;;;;;;;;5066214;28;20025;-43
2022/11/08 08:27:56;;;;;;;26.52;13.65;;;;;;;;;;5070006;28;20039;-41
2022/11/08 08:30:22;;;;;;;23.48;13.65;;;;;;;;;;5057218;28;20032;-42
2022/11/08 08:32:47;;;;;;;21.48;13.25;;;;;;;;;;5064761;28;20021;-41
2022/11/08 08:35:13;;;;;;;23.08;13.57;;;;;;;;;;5061478;28;20025;-42
2022/11/08 08:37:38;;;;;;;27.05;13.88;;;;;;;;;;5058172;28;20098;-39
2022/11/08 08:40:04;;;;;;;21.30;13.30;;;;;;;;;;5053589;28;20055;-43
2022/11/08 08:42:31;;;;;;;31.48;14.63;;;;;;;;;;5065765;28;20374;-43
2022/11/08 08:44:56;;;;;;;25.15;14.43;;;;;;;;;;5065933;28;20078;-43
2022/11/08 08:47:22;;;;;;;30.43;24.77;;;;;;;;;;5057708;28;20449;-45
2022/11/08 08:49:47;;;;;;;32.63;21.42;;;;;;;;;;5058710;28;20434;-43
2022/11/08 08:52:13;;;;;;;33.63;14.60;;;;;;;;;;5058593;28;20021;-38
2022/11/08 08:54:38;;;;;;;33.33;15.40;;;;;;;;;;5052435;28;20104;-41
2022/11/08 08:57:03;;;;;;;249.50;228.03;;;;;;;;;;5052056;28;20285;-43
2022/11/08 08:59:28;;;;;;;85.63;76.67;;;;;;;;;;5052958;28;20278;-43
2022/11/08 09:01:54;;;;;;;33.22;22.45;;;;;;;;;;5053137;28;20021;-40
2022/11/08 09:04:19;;;;;;;26.63;14.90;;;;;;;;;;5053081;28;20025;-40
2022/11/08 09:06:44;;;;;;;27.52;15.45;;;;;;;;;;5052529;28;20358;-41
2022/11/08 09:09:10;;;;;;;24.92;14.38;;;;;;;;;;5053316;28;20029;-43
2022/11/08 09:11:35;;;;;;;23.05;14.43;;;;;;;;;;5054523;28;20067;-43
2022/11/08 09:14:00;;;;;;;27.77;14.50;;;;;;;;;;5068372;28;20025;-42
2022/11/08 09:16:25;;;;;;;27.35;14.95;;;;;;;;;;5068680;28;20112;-40
2022/11/08 09:18:51;;;;;;;27.92;15.38;;;;;;;;;;5053284;28;20029;-42
2022/11/08 09:21:16;;;;;;;25.08;13.63;;;;;;;;;;5069845;28;20032;-41
2022/11/08 09:23:41;;;;;;;27.38;14.80;;;;;;;;;;5061615;28;20012;-46
2022/11/08 09:26:07;;;;;;;25.80;15.48;;;;;;;;;;5053800;28;20017;-42
2022/11/08 09:28:33;;;;;;;37.30;17.38;;;;;;;;;;5056178;28;20029;-46
2022/11/08 09:30:59;;;;;;;35.85;17.48;;;;;;;;;;5056968;28;20024;-42
2022/11/08 09:33:25;;;;;;;35.88;17.25;;;;;;;;;;5060526;28;20481;-43
2022/11/08 09:35:52;;;;;;;40.03;17.13;;;;;;;;;;5059504;28;20017;-43
2022/11/08 09:38:18;;;;;;;29.42;16.88;;;;;;;;;;5054758;28;20089;-44
2022/11/08 09:40:49;;;;;;;34.80;15.63;;;;;;;;;;5061774;28;20016;-43
2022/11/08 09:43:24;;;;;;;40.42;18.50;;;;;;;;;;5061874;28;20020;-44
2022/11/08 09:45:51;;;;;;;32.97;15.98;;;;;;;;;;5071578;28;20052;-43
2022/11/08 09:48:20;;;;;;;37.15;17.17;;;;;;;;;;5057416;28;20029;-43
2022/11/08 09:50:45;;;;;;;30.77;15.35;;;;;;;;;;5066158;28;20108;-44
2022/11/08 09:53:21;;;;;;;32.03;15.85;;;;;;;;;;5057363;28;20450;-44
2022/11/08 09:55:50;;;;;;;36.08;14.55;;;;;;;;;;5060666;28;20013;-44
2022/11/08 09:58:33;;;;;;;27.70;14.48;;;;;;;;;;5053005;28;20119;-44
2022/11/08 10:00:58;;;;;;;30.25;14.45;;;;;;;;;;5056000;28;20041;-44
2022/11/08 10:03:24;;;;;;;27.98;14.57;;;;;;;;;;5056658;28;20031;-43
2022/11/08 10:05:59;;;;;;;26.83;14.20;;;;;;;;;;5057382;28;20034;-44
2022/11/08 10:08:32;;;;;;;26.98;13.25;;;;;;;;;;5068897;28;20103;-44
2022/11/08 10:11:00;;;;;;;25.80;15.45;;;;;;;;;;5063214;28;20024;-43
2022/11/08 10:13:25;;;;;;;28.80;15.18;;;;;;;;;;5062511;28;20097;-42
2022/11/08 10:15:57;;;;;;;34.83;15.60;;;;;;;;;;5067742;28;20085;-43
2022/11/08 10:18:22;;;;;;;24.42;12.75;;;;;;;;;;5051968;28;20037;-47
2022/11/08 10:21:02;;;;;;;29.15;15.93;;;;;;;;;;5057547;28;20376;-45
2022/11/08 10:23:28;;;;;;;30.73;14.50;;;;;;;;;;5059585;28;20391;-43
2022/11/08 10:25:54;;;;;;;31.17;14.87;;;;;;;;;;5056164;28;20031;-44
2022/11/08 10:28:23;;;;;;;31.05;15.77;;;;;;;;;;5054359;28;20277;-45
2022/11/08 10:30:48;;;;;;;;;;;;;;;;;;5059585;28;20016;-43
2022/11/08 10:33:17;;;;;;;29.77;14.77;;;;;;;;;;5056503;28;20288;-44
2022/11/08 10:35:44;;;;;;;26.97;14.23;;;;;;;;;;5065047;28;20266;-44
2022/11/08 10:38:21;;;;;;;26.88;13.95;;;;;;;;;;5053785;28;20332;-44
2022/11/08 10:40:54;;;;;;;32.17;15.15;;;;;;;;;;5049848;28;20036;-43
2022/11/08 10:43:31;;;;;;;29.65;14.93;;;;;;;;;;5064181;28;20475;-44
2022/11/08 10:45:57;;;;;;;32.75;15.80;;;;;;;;;;5058085;28;20137;-46
2022/11/08 10:48:22;;;;;;;33.83;17.07;;;;;;;;;;5059475;28;20111;-41
2022/11/08 10:50:49;;;;;;;33.00;15.38;;;;;;;;;;5063475;28;20265;-44
2022/11/08 10:53:25;;;;;;;35.33;16.25;;;;;;;;;;5057383;28;20108;-44
2022/11/08 10:55:52;;;;;;;32.05;16.17;;;;;;;;;;5070739;28;20116;-43
2022/11/08 10:58:28;;;;;;;29.45;15.55;;;;;;;;;;5050050;28;20120;-41
2022/11/08 11:01:01;;;;;;;36.60;16.55;;;;;;;;;;5050440;28;20036;-43
2022/11/08 11:03:29;;;;;;;35.72;17.52;;;;;;;;;;5062839;28;20021;-43
2022/11/08 11:06:04;;;;;;;32.83;17.08;;;;;;;;;;5051168;28;20021;-43
2022/11/08 11:08:30;;;;;;;30.30;15.30;;;;;;;;;;5051747;28;20031;-46
2022/11/08 11:11:12;;;;;;;30.45;16.50;;;;;;;;;;5054261;28;20021;-43
2022/11/08 11:13:37;;;;;;;32.63;14.82;;;;;;;;;;5059563;28;20027;-44
2022/11/08 11:16:03;;;;;;;32.72;14.95;;;;;;;;;;5064874;28;20662;-43
2022/11/08 11:18:49;;;;;;;39.10;16.58;;;;;;;;;;5064692;28;20043;-43
2022/11/08 11:21:14;;;;;;;35.50;17.58;;;;;;;;;;5058947;28;20108;-42
2022/11/08 11:23:44;;;;;;;43.15;16.13;;;;;;;;;;5057855;28;20108;-44
2022/11/08 11:26:18;;;;;;;42.50;17.52;;;;;;;;;;5055465;28;20028;-33
2022/11/08 11:29:02;;;;;;;35.67;17.55;;;;;;;;;;5053429;28;20079;-33
2022/11/08 11:31:28;;;;;;;44.72;18.25;;;;;;;;;;5053499;28;20033;-34
2022/11/08 11:33:54;;;;;;;32.15;16.38;;;;;;;;;;5066758;28;20027;-32
2022/11/08 11:36:21;;;;;;;29.65;16.08;;;;;;;;;;5062829;28;20111;-32
2022/11/08 11:38:51;;;;;;;33.35;17.52;;;;;;;;;;5059441;28;20025;-33
2022/11/08 11:41:19;;;;;;;31.52;16.00;;;;;;;;;;5053623;28;20017;-33
2022/11/08 11:44:01;;;;;;;32.95;17.63;;;;;;;;;;5065451;28;20012;-34
2022/11/08 11:46:33;;;;;;;35.60;16.92;;;;;;;;;;5064378;28;20137;-33
2022/11/08 11:49:03;;;;;;;37.58;17.50;;;;;;;;;;5067302;28;20029;-33
2022/11/08 11:51:29;;;;;;;30.15;16.05;;;;;;;;;;5073314;28;20445;-33
2022/11/08 11:53:55;;;;;;;33.17;17.90;;;;;;;;;;5074828;28;20066;-33
2022/11/08 11:56:26;;;;;;;35.10;17.38;;;;;;;;;;5058509;28;20037;-34
2022/11/08 11:59:04;;;;;;;34.53;18.63;;;;;;;;;;5064267;28;20028;-33
2022/11/08 12:01:35;;;;;;;35.17;18.67;;;;;;;;;;5058811;28;20056;-34
2022/11/08 12:04:16;;;;;;;31.75;16.58;;;;;;;;;;5055758;28;20036;-33
2022/11/08 12:07:10;;;;;;;38.03;17.77;;;;;;;;;;5064579;28;20020;-32
2022/11/08 12:09:51;;;;;;;33.88;17.00;;;;;;;;;;5048163;28;20056;-32
2022/11/08 12:12:38;;;;;;;34.72;17.95;;;;;;;;;;5059316;28;20029;-34
2022/11/08 12:15:10;;;;;;;39.40;18.48;;;;;;;;;;5074057;28;20478;-32
2022/11/08 12:17:38;;;;;;;36.50;16.48;;;;;;;;;;5065888;28;20104;-32
2022/11/08 12:20:24;;;;;;;37.47;17.60;;;;;;;;;;5068205;28;20384;-31
2022/11/08 12:23:04;;;;;;;36.05;15.90;;;;;;;;;;5063064;28;20033;-39
2022/11/08 12:25:32;;;;;;;33.33;17.00;;;;;;;;;;5065912;28;20032;-40
2022/11/08 12:28:00;;;;;;;32.40;17.08;;;;;;;;;;5062143;28;20151;-39
2022/11/08 12:30:36;;;;;;;33.90;17.80;;;;;;;;;;5074004;28;20024;-38
2022/11/08 12:33:21;;;;;;;32.30;16.75;;;;;;;;;;5072021;28;20029;-36
2022/11/08 12:35:47;;;;;;;34.45;18.75;;;;;;;;;;5058317;28;20033;-42
2022/11/08 12:38:32;;;;;;;38.40;17.35;;;;;;;;;;5057850;28;20110;-41
2022/11/08 12:41:06;;;;;;;38.22;18.20;;;;;;;;;;5058199;28;20020;-44
2022/11/08 12:43:37;;;;;;;39.72;18.63;;;;;;;;;;5069598;28;20028;-39
2022/11/08 12:46:17;;;;;;;36.80;17.10;;;;;;;;;;5051157;28;20060;-40
2022/11/08 12:48:54;;;;;;;37.05;18.98;;;;;;;;;;5067316;28;20032;-35
2022/11/08 12:51:35;;;;;;;42.28;17.55;;;;;;;;;;5059465;28;20040;-42
2022/11/08 12:54:03;;;;;;;39.83;17.10;;;;;;;;;;5056039;28;20039;-42
2022/11/08 12:56:58;;;;;;;30.55;15.68;;;;;;;;;;5063375;28;20387;-41
2022/11/08 12:59:43;;;;;;;50.45;19.52;;;;;;;;;;5050716;28;20094;-40
2022/11/08 13:02:29;;;;;;;38.58;17.02;;;;;;;;;;5065894;28;20044;-42
2022/11/08 13:05:02;;;;;;;41.00;16.48;;;;;;;;;;5053153;28;20021;-44
2022/11/08 13:07:30;;;;;;;51.63;20.10;;;;;;;;;;5060783;28;20035;-45
2022/11/08 13:10:11;;;;;;;40.15;18.70;;;;;;;;;;5053339;28;20047;-39
2022/11/08 13:12:43;;;;;;;48.58;18.65;;;;;;;;;;5065119;28;20024;-43
2022/11/08 13:15:19;;;;;;;38.38;17.33;;;;;;;;;;5057084;28;20107;-42
2022/11/08 13:18:03;;;;;;;35.33;16.25;;;;;;;;;;5060876;28;20036;-43
2022/11/08 13:20:39;;;;;;;38.95;18.73;;;;;;;;;;5053109;28;20032;-43
2022/11/08 13:23:12;;;;;;;37.85;17.27;;;;;;;;;;5054912;28;20113;-43
2022/11/08 13:25:37;;;;;;;35.92;15.50;;;;;;;;;;5060307;28;20025;-44
2022/11/08 13:28:21;;;;;;;44.35;17.42;;;;;;;;;;5065715;28;20028;-43
2022/11/08 13:30:53;;;;;;;37.20;16.08;;;;;;;;;;5061693;28;20017;-43
2022/11/08 13:33:25;;;;;;;38.30;17.08;;;;;;;;;;5063107;28;20028;-40
2022/11/08 13:36:10;;;;;;;36.83;17.33;;;;;;;;;;5056018;28;20499;-42
2022/11/08 13:39:02;;;;;;;43.85;17.80;;;;;;;;;;5053151;28;20062;-44
2022/11/08 13:41:27;;;;;;;37.05;16.85;;;;;;;;;;5052970;28;20032;-41
2022/11/08 13:43:53;;;;;;;34.88;16.80;;;;;;;;;;5058714;28;20388;-40
2022/11/08 13:46:18;;;;;;;34.17;15.88;;;;;;;;;;5064618;28;20119;-42
2022/11/08 13:49:04;;;;;;;34.72;16.77;;;;;;;;;;5061927;28;20029;-41
2022/11/08 13:51:31;;;;;;;33.28;16.67;;;;;;;;;;5054338;28;20083;-42
2022/11/08 13:53:58;;;;;;;35.92;16.88;;;;;;;;;;5060396;28;20031;-43
2022/11/08 13:56:30;;;;;;;42.83;18.95;;;;;;;;;;5054399;28;20017;-42
2022/11/08 13:58:56;;;;;;;89.40;29.88;;;;;;;;;;5055428;28;20123;-42
2022/11/08 14:01:46;;;;;;;78.18;29.70;;;;;;;;;;5062000;28;20467;-40
2022/11/08 14:04:24;;;;;;;45.65;22.70;;;;;;;;;;5055619;28;20013;-41
2022/11/08 14:07:21;;;;;;;42.53;18.50;;;;;;;;;;5051145;28;20028;-42
2022/11/08 14:09:56;;;;;;;33.83;16.92;;;;;;;;;;5033991;28;20040;-44
2022/11/08 14:12:28;;;;;;;39.30;17.77;;;;;;;;;;5061610;28;20035;-43
2022/11/08 14:14:56;;;;;;;40.72;18.05;;;;;;;;;;5061663;28;20063;-40
2022/11/08 14:17:21;;;;;;;39.22;17.75;;;;;;;;;;5060410;28;20066;-40
2022/11/08 14:19:47;;;;;;;36.60;16.95;;;;;;;;;;5056374;28;20074;-39
2022/11/08 14:22:18;;;;;;;42.00;20.25;;;;;;;;;;5062864;28;22158;-41
2022/11/08 14:24:43;;;;;;;42.17;19.60;;;;;;;;;;5054886;28;20036;-45
2022/11/08 14:27:13;;;;;;;41.40;17.90;;;;;;;;;;5057242;28;20024;-40
2022/11/08 14:29:38;;;;;;;35.60;18.27;;;;;;;;;;5054224;28;20013;-43
2022/11/08 14:32:13;;;;;;;47.45;18.75;;;;;;;;;;5056706;28;20040;-39
2022/11/08 14:34:38;;;;;;;34.40;17.45;;;;;;;;;;5053783;28;20108;-43
2022/11/08 14:37:10;;;;;;;42.72;20.10;;;;;;;;;;5056076;28;20119;-39
2022/11/08 14:39:35;;;;;;;39.67;17.60;;;;;;;;;;5058740;28;20017;-39
2022/11/08 14:42:02;;;;;;;40.92;18.27;;;;;;;;;;5045490;28;20055;-42
2022/11/08 14:44:28;;;;;;;40.75;18.38;;;;;;;;;;5054699;28;20499;-43